Aérodrome :
LOGIN :

S'inscrire | Disclaimer

   EN    FR    IT 

 










Légende :    VFR   VFR Marginal   IFR   IFR Intensif   IFR Très Intensif
Visi : 
Plafond : 
>= 8 km
>= 3000ft
5 à 8 km
1000 à 3000 ft
1500m à 5 km
500 à 1000 ft
800 à 1500m
200 à 500 ft
< 800m
< 200 ft
Symboles :   Orages  Brouillard  Fortes neiges  Fortes précipitations  Vent > 20 kt
SIGMETs :   Divers  Orages  Givrage  Turbulence  Onde Orograph.  Cendres Volcan.






- Altitude de l'aérodrome : 2835 ft
- Code IATA : ISE


LTFC - Suleyman Demirel

DERNIER METAR :
  • 271620Z 18013KT 9999 SCT035 18/08 Q1013 RMK RWY23 20009KT

METARs EXPIRÉS :
  • 271550Z 18012KT 9999 SCT035 18/08 Q1013 RMK RWY23 18011KT
  • 271520Z 19013KT 9999 SCT035 19/08 Q1013 RMK RWY23 17014KT
  • 271450Z 17015KT 9999 SCT035 21/08 Q1013 RMK RWY23 15013KT
  • 271420Z 15016KT 9999 SCT035 21/08 Q1012 RMK RWY23 16015KT
  • 271350Z 16015KT 9999 BKN035 21/06 Q1012 RMK RWY23 15014KT

TAF TAF LTFC
Valide du 27 à 12h jusqu'au 28 à 12h UTC


271040Z 2712/2812 18012KT 9999 -SHRA BKN035
BECMG 2712/2715 VRB02KT FEW020CB BKN030
PROB40
TEMPO 2715/2719 -TSRA
BECMG 2719/2723 SCT035



MET'MAP, la Météo Aéronautique d'un coup d'oeil ! - Copyright ORBIFLY Décembre 2007 - Disclaimer

ORBIFLY MET'MAP TEAM :

Programmation & Développement : Alexandra Zaïnal
Sur une idée originale de : Baudouin d'Aumeries
Assistance à la programmation : Marc-Olivier Méhu
Soutien technique & logistique : Manuel Goepfert

Contact : metmap@orbifly.com




SOURCES & CREDITS :

   NOAA